Time;durP1;ratioP1;P1;durP2;ratioP2;P2;SDS_P1;SDS_P2;PMS_P1;PMS_P2;Temp;Humidity;BMP_temperature;BMP_pressure;BME280_temperature;BME280_humidity;BME280_pressure;Samples;Min_cycle;Max_cycle;Signal;HPM_P1;HPM_P2
2022/11/21 00:00:36;;;;;;;38.65;19.50;;;;;;;;;;5054651;28;20037;-82
2022/11/21 00:03:02;;;;;;;40.03;19.52;;;;;;;;;;5054390;28;20045;-79
2022/11/21 00:05:28;;;;;;;41.05;20.00;;;;;;;;;;5054571;28;20052;-79
2022/11/21 00:07:55;;;;;;;39.47;19.83;;;;;;;;;;5037672;28;20033;-82
2022/11/21 00:10:21;;;;;;;38.83;18.83;;;;;;;;;;5037893;28;20040;-80
2022/11/21 00:12:47;;;;;;;40.22;20.42;;;;;;;;;;5054534;28;20045;-79
2022/11/21 00:15:13;;;;;;;42.33;20.73;;;;;;;;;;5055589;28;20051;-82
2022/11/21 00:17:42;;;;;;;40.47;19.38;;;;;;;;;;5054955;28;20131;-82
2022/11/21 00:20:08;;;;;;;39.20;20.70;;;;;;;;;;5055028;28;20036;-80
2022/11/21 00:22:34;;;;;;;35.10;17.63;;;;;;;;;;5037930;28;20098;-79
2022/11/21 00:25:01;;;;;;;35.22;17.20;;;;;;;;;;5037402;28;20049;-79
2022/11/21 00:27:27;;;;;;;40.97;20.45;;;;;;;;;;5055348;28;20494;-79
2022/11/21 00:29:53;;;;;;;36.25;19.05;;;;;;;;;;5053842;28;20052;-79
2022/11/21 00:32:19;;;;;;;40.63;19.63;;;;;;;;;;5023551;28;20094;-83
2022/11/21 00:34:45;;;;;;;38.03;19.05;;;;;;;;;;5055390;28;20041;-83
2022/11/21 00:37:11;;;;;;;36.95;20.25;;;;;;;;;;5054038;28;20143;-83
2022/11/21 00:39:37;;;;;;;38.55;19.85;;;;;;;;;;5053922;28;20056;-79
2022/11/21 00:42:03;;;;;;;43.28;20.23;;;;;;;;;;5037344;28;20048;-82
2022/11/21 00:44:29;;;;;;;46.70;22.10;;;;;;;;;;5036961;28;20124;-80
2022/11/21 00:46:55;;;;;;;44.38;20.98;;;;;;;;;;5036921;28;20048;-83
2022/11/21 00:49:21;;;;;;;42.38;20.48;;;;;;;;;;5053973;28;20551;-80
2022/11/21 00:51:47;;;;;;;39.85;19.30;;;;;;;;;;5053613;28;20394;-79
2022/11/21 00:54:13;;;;;;;36.08;18.35;;;;;;;;;;5053276;28;20040;-79
2022/11/21 00:56:39;;;;;;;44.53;22.02;;;;;;;;;;5053525;28;20049;-79
2022/11/21 00:59:05;;;;;;;41.85;21.95;;;;;;;;;;5053577;28;20052;-83
2022/11/21 01:01:31;;;;;;;40.67;19.58;;;;;;;;;;5053636;28;20041;-83
2022/11/21 01:03:58;;;;;;;41.78;21.02;;;;;;;;;;5036069;28;20555;-80
2022/11/21 01:06:24;;;;;;;42.15;21.77;;;;;;;;;;5053191;28;20102;-80
2022/11/21 01:08:50;;;;;;;44.45;20.50;;;;;;;;;;5050909;28;20140;-79
2022/11/21 01:11:17;;;;;;;48.67;22.67;;;;;;;;;;5053329;28;20048;-83
2022/11/21 01:13:44;;;;;;;44.50;21.45;;;;;;;;;;5087355;28;20041;-83
2022/11/21 01:16:11;;;;;;;48.15;21.88;;;;;;;;;;5053396;28;20052;-82
2022/11/21 01:18:37;;;;;;;48.88;22.73;;;;;;;;;;5053954;28;20044;-82
2022/11/21 01:21:05;;;;;;;43.50;21.50;;;;;;;;;;5054329;28;20110;-82
2022/11/21 01:23:31;;;;;;;40.17;21.13;;;;;;;;;;5052912;28;20086;-82
2022/11/21 01:26:01;;;;;;;44.60;20.58;;;;;;;;;;5052897;28;20045;-82
2022/11/21 01:28:27;;;;;;;44.13;22.23;;;;;;;;;;5054089;28;20387;-82
2022/11/21 01:30:53;;;;;;;43.38;22.27;;;;;;;;;;5052606;28;20045;-82
2022/11/21 01:33:19;;;;;;;51.05;22.98;;;;;;;;;;5052599;28;20112;-82
2022/11/21 01:35:45;;;;;;;47.65;22.25;;;;;;;;;;5036270;28;20087;-82
2022/11/21 01:38:11;;;;;;;46.35;21.95;;;;;;;;;;5052079;28;20051;-82
2022/11/21 01:40:40;;;;;;;42.70;21.25;;;;;;;;;;5036442;28;20486;-82
2022/11/21 01:43:11;;;;;;;44.47;22.45;;;;;;;;;;5035780;28;20041;-82
2022/11/21 01:46:06;;;;;;;45.30;21.85;;;;;;;;;;5053805;28;20099;-82
2022/11/21 01:48:33;;;;;;;44.55;21.98;;;;;;;;;;5023195;28;20049;-82
2022/11/21 01:51:03;;;;;;;48.47;22.45;;;;;;;;;;5052271;28;20071;-82
2022/11/21 01:53:29;;;;;;;43.55;21.65;;;;;;;;;;5052247;28;20041;-81
2022/11/21 01:55:55;;;;;;;47.10;22.00;;;;;;;;;;5053476;28;20095;-82
2022/11/21 01:58:22;;;;;;;44.25;22.67;;;;;;;;;;5052408;28;20040;-79
2022/11/21 02:00:48;;;;;;;48.00;22.77;;;;;;;;;;5052446;28;20398;-80
2022/11/21 02:03:17;;;;;;;46.85;23.23;;;;;;;;;;5035302;28;20040;-82
2022/11/21 02:05:43;;;;;;;43.42;22.85;;;;;;;;;;5052199;28;20049;-82
2022/11/21 02:08:13;;;;;;;38.05;19.25;;;;;;;;;;5040280;28;20041;-80
2022/11/21 02:10:44;;;;;;;37.40;18.55;;;;;;;;;;5050248;28;20041;-80
2022/11/21 02:13:10;;;;;;;42.55;19.60;;;;;;;;;;5051637;28;20048;-79
2022/11/21 02:15:36;;;;;;;45.67;22.30;;;;;;;;;;5052773;28;20090;-80
2022/11/21 02:18:02;;;;;;;42.00;21.02;;;;;;;;;;5051545;28;20119;-80
2022/11/21 02:20:28;;;;;;;46.10;21.48;;;;;;;;;;5051645;28;20044;-80
2022/11/21 02:23:13;;;;;;;44.20;22.05;;;;;;;;;;5051710;28;20040;-80
2022/11/21 02:25:41;;;;;;;46.13;22.27;;;;;;;;;;5051332;28;20053;-80
2022/11/21 02:28:15;;;;;;;45.25;21.67;;;;;;;;;;5051291;28;20087;-81
2022/11/21 02:30:41;;;;;;;41.83;20.98;;;;;;;;;;5051827;28;20080;-82
2022/11/21 02:33:07;;;;;;;44.33;22.35;;;;;;;;;;5051291;28;20041;-82
2022/11/21 02:35:34;;;;;;;44.70;22.17;;;;;;;;;;5035008;28;20067;-82
2022/11/21 02:38:10;;;;;;;47.92;22.98;;;;;;;;;;5051471;28;20055;-80
2022/11/21 02:40:39;;;;;;;47.63;23.23;;;;;;;;;;5051390;28;20075;-79
2022/11/21 02:43:20;;;;;;;42.65;22.27;;;;;;;;;;5051080;28;20044;-79
2022/11/21 02:45:47;;;;;;;44.45;22.52;;;;;;;;;;5051659;28;20394;-82
2022/11/21 02:48:13;;;;;;;38.58;19.83;;;;;;;;;;5051116;28;20033;-80
2022/11/21 02:50:43;;;;;;;35.63;18.95;;;;;;;;;;5051697;28;20367;-80
2022/11/21 02:53:11;;;;;;;43.22;22.00;;;;;;;;;;5030998;28;20047;-80
2022/11/21 02:55:37;;;;;;;44.47;22.23;;;;;;;;;;5040908;28;20396;-80
2022/11/21 02:58:04;;;;;;;49.60;22.50;;;;;;;;;;5037038;28;20128;-80
2022/11/21 03:00:30;;;;;;;45.63;22.63;;;;;;;;;;5051181;28;20110;-80
2022/11/21 03:02:56;;;;;;;42.40;22.15;;;;;;;;;;5016132;28;20051;-80
2022/11/21 03:05:22;;;;;;;43.40;20.92;;;;;;;;;;5049768;28;20103;-80
2022/11/21 03:07:48;;;;;;;44.97;20.30;;;;;;;;;;5051014;28;20045;-79
2022/11/21 03:10:15;;;;;;;37.03;18.63;;;;;;;;;;5050344;28;20059;-80
2022/11/21 03:12:42;;;;;;;36.47;17.42;;;;;;;;;;5085343;28;20458;-82
2022/11/21 03:15:09;;;;;;;44.92;21.63;;;;;;;;;;5050774;28;20040;-82
2022/11/21 03:17:35;;;;;;;40.97;20.65;;;;;;;;;;5051145;28;20036;-82
2022/11/21 03:20:01;;;;;;;45.42;21.70;;;;;;;;;;5084746;28;20045;-82
2022/11/21 03:22:27;;;;;;;45.13;22.08;;;;;;;;;;5050675;28;20045;-81
2022/11/21 03:24:53;;;;;;;36.88;18.42;;;;;;;;;;5050830;28;20037;-82
2022/11/21 03:27:20;;;;;;;42.90;21.92;;;;;;;;;;5051974;28;20470;-81
2022/11/21 03:29:46;;;;;;;45.08;22.25;;;;;;;;;;5042401;28;20064;-82
2022/11/21 03:32:12;;;;;;;47.00;23.00;;;;;;;;;;5038561;28;20045;-79
2022/11/21 03:34:38;;;;;;;39.50;21.20;;;;;;;;;;5054844;28;20036;-80
2022/11/21 03:37:04;;;;;;;49.17;22.55;;;;;;;;;;5038304;28;20111;-81
2022/11/21 03:39:30;;;;;;;45.28;21.80;;;;;;;;;;5055768;28;20051;-82
2022/11/21 03:41:56;;;;;;;50.85;22.38;;;;;;;;;;5054807;28;20041;-82
2022/11/21 03:44:22;;;;;;;44.65;21.98;;;;;;;;;;5054164;28;20082;-82
2022/11/21 03:46:49;;;;;;;47.00;22.20;;;;;;;;;;5021608;28;20041;-82
2022/11/21 03:49:15;;;;;;;44.30;22.08;;;;;;;;;;5037921;28;20067;-80
2022/11/21 03:51:43;;;;;;;49.05;22.77;;;;;;;;;;5054505;28;20033;-82
2022/11/21 03:54:09;;;;;;;38.15;19.05;;;;;;;;;;5054939;28;20037;-80
2022/11/21 03:56:35;;;;;;;44.90;21.90;;;;;;;;;;5054476;28;20120;-80
2022/11/21 03:59:02;;;;;;;45.83;21.75;;;;;;;;;;5088291;28;20049;-79
2022/11/21 04:01:28;;;;;;;44.97;22.85;;;;;;;;;;5088212;28;20494;-80
2022/11/21 04:03:54;;;;;;;47.53;22.70;;;;;;;;;;5037827;28;20052;-79
2022/11/21 04:06:21;;;;;;;39.17;19.35;;;;;;;;;;5054172;28;20073;-79
2022/11/21 04:08:48;;;;;;;46.17;21.67;;;;;;;;;;5038882;28;20037;-79
2022/11/21 04:11:14;;;;;;;44.30;21.98;;;;;;;;;;5054978;28;20069;-82
2022/11/21 04:13:40;;;;;;;46.40;22.10;;;;;;;;;;5055216;28;20464;-82
2022/11/21 04:16:07;;;;;;;44.40;21.40;;;;;;;;;;5038774;28;20041;-82
2022/11/21 04:18:33;;;;;;;48.42;21.80;;;;;;;;;;5054719;28;20051;-82
2022/11/21 04:21:00;;;;;;;40.85;20.13;;;;;;;;;;5038870;28;20044;-82
2022/11/21 04:23:27;;;;;;;43.67;21.67;;;;;;;;;;5055097;28;20041;-82
2022/11/21 04:25:53;;;;;;;45.25;21.02;;;;;;;;;;5055124;28;20072;-81
2022/11/21 04:28:19;;;;;;;47.85;21.88;;;;;;;;;;5055935;28;20611;-82
2022/11/21 04:30:45;;;;;;;48.75;22.67;;;;;;;;;;5038328;28;20132;-82
2022/11/21 04:33:13;;;;;;;46.08;21.17;;;;;;;;;;5054355;28;20040;-79
2022/11/21 04:35:39;;;;;;;47.42;21.75;;;;;;;;;;5053588;28;20041;-79
2022/11/21 04:38:05;;;;;;;42.78;20.88;;;;;;;;;;5052367;28;20040;-79
2022/11/21 04:40:31;;;;;;;47.42;22.38;;;;;;;;;;5054775;28;20397;-79
2022/11/21 04:42:57;;;;;;;50.42;22.17;;;;;;;;;;5053690;28;20048;-79
2022/11/21 04:45:23;;;;;;;52.00;23.45;;;;;;;;;;5054458;28;20120;-79
2022/11/21 04:47:49;;;;;;;52.47;23.88;;;;;;;;;;5036813;28;20052;-79
2022/11/21 04:50:17;;;;;;;49.42;22.58;;;;;;;;;;5053475;28;20037;-79
2022/11/21 04:52:48;;;;;;;52.85;23.42;;;;;;;;;;5053487;28;20044;-79
2022/11/21 04:55:14;;;;;;;50.90;22.80;;;;;;;;;;5039832;28;20052;-79
2022/11/21 04:57:40;;;;;;;50.55;22.63;;;;;;;;;;5019872;28;20080;-79
2022/11/21 05:00:07;;;;;;;53.50;24.40;;;;;;;;;;5053406;28;20044;-79
2022/11/21 05:02:33;;;;;;;51.47;22.40;;;;;;;;;;5051695;28;20124;-79
2022/11/21 05:04:59;;;;;;;50.35;22.60;;;;;;;;;;5052253;28;20055;-79
2022/11/21 05:07:25;;;;;;;54.88;24.27;;;;;;;;;;5052347;28;20146;-80
2022/11/21 05:09:51;;;;;;;53.53;23.80;;;;;;;;;;5052076;28;20048;-79
2022/11/21 05:15:02;;;;;;;53.13;23.15;;;;;;;;;;5052804;28;20049;-80
2022/11/21 05:17:29;;;;;;;50.17;22.85;;;;;;;;;;5052646;28;20040;-80
2022/11/21 05:19:55;;;;;;;48.33;21.25;;;;;;;;;;5054145;28;20098;-80
2022/11/21 05:22:21;;;;;;;52.55;22.98;;;;;;;;;;5052405;28;20048;-81
2022/11/21 05:24:47;;;;;;;55.83;22.73;;;;;;;;;;5052854;28;20037;-81
2022/11/21 05:27:13;;;;;;;51.45;21.17;;;;;;;;;;5052488;28;20045;-79
2022/11/21 05:29:39;;;;;;;48.35;22.02;;;;;;;;;;5019376;28;20088;-80
2022/11/21 05:32:05;;;;;;;49.85;22.33;;;;;;;;;;5036329;28;20502;-80
2022/11/21 05:34:31;;;;;;;57.60;24.45;;;;;;;;;;5053914;28;20402;-81
2022/11/21 05:36:57;;;;;;;55.90;24.35;;;;;;;;;;5036223;28;20500;-81
2022/11/21 05:39:24;;;;;;;50.03;21.65;;;;;;;;;;5052276;28;20529;-81
2022/11/21 05:41:50;;;;;;;63.08;24.50;;;;;;;;;;5086200;28;20524;-80
2022/11/21 05:44:16;;;;;;;60.38;25.65;;;;;;;;;;5035908;28;20047;-80
2022/11/21 05:46:42;;;;;;;55.85;23.80;;;;;;;;;;5052343;28;20036;-80
2022/11/21 05:49:08;;;;;;;61.53;25.40;;;;;;;;;;5035667;28;20041;-81
2022/11/21 05:51:34;;;;;;;62.17;26.08;;;;;;;;;;5052001;28;20043;-80
2022/11/21 05:54:00;;;;;;;65.90;26.33;;;;;;;;;;5052571;28;20513;-80
2022/11/21 05:56:26;;;;;;;62.95;27.38;;;;;;;;;;5052104;28;20501;-80
2022/11/21 05:58:56;;;;;;;63.05;26.38;;;;;;;;;;5053696;28;20041;-80
2022/11/21 06:04:24;;;;;;;64.07;26.35;;;;;;;;;;5011887;28;20551;-80
2022/11/21 06:06:50;;;;;;;61.10;26.13;;;;;;;;;;5027606;28;20053;-80
2022/11/21 06:09:16;;;;;;;69.63;27.35;;;;;;;;;;5052399;28;20513;-80
2022/11/21 06:11:42;;;;;;;67.18;26.92;;;;;;;;;;5035093;28;20386;-81
2022/11/21 06:14:08;;;;;;;73.13;26.73;;;;;;;;;;5052127;28;20452;-81
2022/11/21 06:16:35;;;;;;;62.83;26.13;;;;;;;;;;5034865;28;20410;-80
2022/11/21 06:19:01;;;;;;;73.20;27.77;;;;;;;;;;5051693;28;20055;-81
2022/11/21 06:21:28;;;;;;;71.07;27.02;;;;;;;;;;5051851;28;20062;-80
2022/11/21 06:23:55;;;;;;;71.25;27.70;;;;;;;;;;5053422;28;20486;-80
2022/11/21 06:26:22;;;;;;;66.75;27.02;;;;;;;;;;5051885;28;20363;-79
2022/11/21 06:28:48;;;;;;;70.30;27.27;;;;;;;;;;5051268;28;20052;-80
2022/11/21 06:31:19;;;;;;;74.68;27.52;;;;;;;;;;5051424;28;20041;-80
2022/11/21 06:33:45;;;;;;;65.53;26.40;;;;;;;;;;5051295;28;20041;-79
2022/11/21 06:36:16;;;;;;;72.88;28.02;;;;;;;;;;5051603;28;20045;-79
2022/11/21 06:38:42;;;;;;;74.03;27.75;;;;;;;;;;5052416;28;20498;-79
2022/11/21 06:41:12;;;;;;;77.30;26.88;;;;;;;;;;5051655;28;20044;-79
2022/11/21 06:43:38;;;;;;;71.60;28.27;;;;;;;;;;5051480;28;20037;-80
2022/11/21 06:46:04;;;;;;;73.47;28.73;;;;;;;;;;5052075;28;20390;-80
2022/11/21 06:48:31;;;;;;;80.82;27.85;;;;;;;;;;5051421;28;20052;-80
2022/11/21 06:50:57;;;;;;;76.38;28.98;;;;;;;;;;5052509;28;20120;-80
2022/11/21 06:53:23;;;;;;;78.90;28.88;;;;;;;;;;5051148;28;20044;-79
2022/11/21 06:55:49;;;;;;;84.38;30.10;;;;;;;;;;5051266;28;20433;-79
2022/11/21 06:58:15;;;;;;;87.40;30.48;;;;;;;;;;5051154;28;20136;-78
2022/11/21 07:00:43;;;;;;;100.05;31.67;;;;;;;;;;5051907;28;20045;-78
2022/11/21 07:03:09;;;;;;;121.97;34.17;;;;;;;;;;5050714;28;20056;-78
2022/11/21 07:05:35;;;;;;;120.40;34.38;;;;;;;;;;5051350;28;20049;-78
2022/11/21 07:08:01;;;;;;;195.82;36.20;;;;;;;;;;5035177;28;20123;-78
2022/11/21 07:10:28;;;;;;;199.32;35.40;;;;;;;;;;5051182;28;20048;-77
2022/11/21 07:15:46;;;;;;;191.07;34.97;;;;;;;;;;5037772;28;20041;-77
2022/11/21 07:18:12;;;;;;;301.65;44.90;;;;;;;;;;5051211;28;20037;-78
2022/11/21 07:20:38;;;;;;;182.48;35.83;;;;;;;;;;5050512;28;20048;-79
2022/11/21 07:23:04;;;;;;;219.98;34.58;;;;;;;;;;5052313;28;20524;-79
2022/11/21 07:25:30;;;;;;;242.63;33.78;;;;;;;;;;5050964;28;20051;-79
2022/11/21 07:28:04;;;;;;;213.70;35.78;;;;;;;;;;5050227;28;20049;-77
2022/11/21 07:30:30;;;;;;;257.38;36.72;;;;;;;;;;5050937;28;20099;-77
2022/11/21 07:33:00;;;;;;;229.05;33.08;;;;;;;;;;5050363;28;20115;-77
2022/11/21 07:35:26;;;;;;;282.10;35.53;;;;;;;;;;5034374;28;20037;-79
2022/11/21 07:37:52;;;;;;;248.13;35.88;;;;;;;;;;5033581;28;20052;-77
2022/11/21 07:40:19;;;;;;;285.90;33.63;;;;;;;;;;5050678;28;20041;-79
2022/11/21 07:42:45;;;;;;;239.50;31.67;;;;;;;;;;5050286;28;20056;-79
2022/11/21 07:45:11;;;;;;;283.17;31.55;;;;;;;;;;5084122;28;20041;-79
2022/11/21 07:47:37;;;;;;;146.05;25.92;;;;;;;;;;5050491;28;20041;-77
2022/11/21 07:50:04;;;;;;;157.30;28.83;;;;;;;;;;5050535;28;20037;-77
2022/11/21 07:52:30;;;;;;;128.27;20.48;;;;;;;;;;5050587;28;20178;-77
2022/11/21 07:54:57;;;;;;;183.23;23.90;;;;;;;;;;5051760;28;20044;-77
2022/11/21 07:57:23;;;;;;;141.48;21.52;;;;;;;;;;5050680;28;20122;-77
2022/11/21 07:59:49;;;;;;;134.00;21.45;;;;;;;;;;5050173;28;20091;-77
2022/11/21 08:02:19;;;;;;;154.95;23.50;;;;;;;;;;5050280;28;20033;-78
2022/11/21 08:04:45;;;;;;;119.20;20.73;;;;;;;;;;5051432;28;20592;-79
2022/11/21 08:07:12;;;;;;;130.88;20.65;;;;;;;;;;5050496;28;20045;-79
2022/11/21 08:09:38;;;;;;;136.35;21.65;;;;;;;;;;5034212;28;20490;-80
2022/11/21 08:12:04;;;;;;;156.50;23.50;;;;;;;;;;5050206;28;20087;-79
2022/11/21 08:14:30;;;;;;;217.20;24.90;;;;;;;;;;5054527;28;20441;-79
2022/11/21 08:16:56;;;;;;;130.85;22.63;;;;;;;;;;5053965;28;20045;-80
2022/11/21 08:19:23;;;;;;;213.05;26.27;;;;;;;;;;5040228;28;20049;-78
2022/11/21 08:21:49;;;;;;;157.07;22.05;;;;;;;;;;5055709;28;20164;-78
2022/11/21 08:24:16;;;;;;;137.52;22.05;;;;;;;;;;5054895;28;20068;-78
2022/11/21 08:26:42;;;;;;;154.95;25.67;;;;;;;;;;5037437;28;20045;-78
2022/11/21 08:29:14;;;;;;;109.13;21.95;;;;;;;;;;5054779;28;20057;-80
2022/11/21 08:31:40;;;;;;;113.20;22.75;;;;;;;;;;5054171;28;20119;-78
2022/11/21 08:34:07;;;;;;;87.07;20.52;;;;;;;;;;5036854;28;20485;-78
2022/11/21 08:36:33;;;;;;;84.65;17.98;;;;;;;;;;5037376;28;20048;-77
2022/11/21 08:38:59;;;;;;;129.10;22.10;;;;;;;;;;5053473;28;20045;-78
2022/11/21 08:44:10;;;;;;;95.70;20.35;;;;;;;;;;5053131;28;20049;-78
2022/11/21 08:46:39;;;;;;;71.75;19.85;;;;;;;;;;5037175;28;20044;-78
2022/11/21 08:49:08;;;;;;;76.25;18.33;;;;;;;;;;5054221;28;20036;-78
2022/11/21 08:51:35;;;;;;;99.47;19.98;;;;;;;;;;5037183;28;20473;-78
2022/11/21 08:54:01;;;;;;;91.80;18.52;;;;;;;;;;5053384;28;20481;-81
2022/11/21 08:56:27;;;;;;;85.63;19.50;;;;;;;;;;5055034;28;20036;-82
2022/11/21 08:58:54;;;;;;;74.32;18.00;;;;;;;;;;5053579;28;20052;-82
2022/11/21 09:01:21;;;;;;;76.43;18.50;;;;;;;;;;5053370;28;20048;-82
2022/11/21 09:03:47;;;;;;;96.88;18.90;;;;;;;;;;5053427;28;20095;-82
2022/11/21 09:06:13;;;;;;;79.85;18.00;;;;;;;;;;5053215;28;20044;-77
2022/11/21 09:08:39;;;;;;;88.60;18.98;;;;;;;;;;5052992;28;20037;-77
2022/11/21 09:11:06;;;;;;;90.78;18.42;;;;;;;;;;5053013;28;20461;-77
2022/11/21 09:13:33;;;;;;;71.63;17.58;;;;;;;;;;5053035;28;20033;-78
2022/11/21 09:18:44;;;;;;;73.22;18.92;;;;;;;;;;5053333;28;20049;-78
2022/11/21 09:21:14;;;;;;;75.45;18.92;;;;;;;;;;5036129;28;20054;-78
2022/11/21 09:23:40;;;;;;;72.25;20.00;;;;;;;;;;5086123;28;20120;-78
2022/11/21 09:26:06;;;;;;;69.50;20.27;;;;;;;;;;5086074;28;20033;-78
2022/11/21 09:28:34;;;;;;;51.97;16.60;;;;;;;;;;5053918;28;20533;-78
2022/11/21 09:31:01;;;;;;;52.97;17.40;;;;;;;;;;5052564;28;20045;-78
2022/11/21 09:33:27;;;;;;;52.40;16.40;;;;;;;;;;5053001;28;20043;-78
2022/11/21 09:35:54;;;;;;;51.97;17.80;;;;;;;;;;5052320;28;20049;-78
2022/11/21 09:38:20;;;;;;;53.92;17.60;;;;;;;;;;5053389;28;20063;-79
2022/11/21 09:40:48;;;;;;;46.75;18.83;;;;;;;;;;5054198;28;20041;-83
2022/11/21 09:43:14;;;;;;;41.45;17.42;;;;;;;;;;5052715;28;20194;-83
2022/11/21 09:45:44;;;;;;;44.17;17.10;;;;;;;;;;5053028;28;20055;-83
2022/11/21 09:48:22;;;;;;;40.05;16.95;;;;;;;;;;5052718;28;20063;-83
2022/11/21 09:50:53;;;;;;;35.70;17.20;;;;;;;;;;5035889;28;20037;-83
2022/11/21 09:53:26;;;;;;;34.55;15.27;;;;;;;;;;5052853;28;20037;-84
2022/11/21 09:55:58;;;;;;;28.83;13.73;;;;;;;;;;5052649;28;20049;-83
2022/11/21 09:58:27;;;;;;;27.55;14.13;;;;;;;;;;5039077;28;20510;-83
2022/11/21 10:00:54;;;;;;;25.88;13.38;;;;;;;;;;5052503;28;20037;-83
2022/11/21 10:03:22;;;;;;;25.58;14.00;;;;;;;;;;5052218;28;20072;-83
2022/11/21 10:05:51;;;;;;;23.77;12.00;;;;;;;;;;5052241;28;20045;-83
2022/11/21 10:08:20;;;;;;;23.42;12.95;;;;;;;;;;5035931;28;20064;-83
2022/11/21 10:11:05;;;;;;;26.55;14.20;;;;;;;;;;5052061;28;20119;-83
2022/11/21 10:13:37;;;;;;;23.63;12.68;;;;;;;;;;5052325;28;20037;-83
2022/11/21 10:16:15;;;;;;;26.13;14.05;;;;;;;;;;5052122;28;20041;-83
2022/11/21 10:18:56;;;;;;;23.95;12.90;;;;;;;;;;5052616;28;20043;-83
2022/11/21 10:21:28;;;;;;;26.52;13.48;;;;;;;;;;5039616;28;20037;-83
2022/11/21 10:24:07;;;;;;;25.27;12.88;;;;;;;;;;5051870;28;20120;-82
2022/11/21 10:26:33;;;;;;;21.40;11.07;;;;;;;;;;5036655;28;20501;-82
2022/11/21 10:29:03;;;;;;;25.38;12.80;;;;;;;;;;5031080;28;20514;-83
2022/11/21 10:31:35;;;;;;;24.17;13.50;;;;;;;;;;5052898;28;20055;-80
2022/11/21 10:34:02;;;;;;;29.40;14.60;;;;;;;;;;5053442;28;20045;-80
2022/11/21 10:36:28;;;;;;;26.85;13.80;;;;;;;;;;5052721;28;20509;-80
2022/11/21 10:39:05;;;;;;;29.75;15.40;;;;;;;;;;5051978;28;20040;-80
2022/11/21 10:41:42;;;;;;;27.20;13.75;;;;;;;;;;5037923;28;20510;-80
2022/11/21 10:47:26;;;;;;;25.58;14.07;;;;;;;;;;5041770;28;20045;-80
2022/11/21 10:49:53;;;;;;;28.20;15.98;;;;;;;;;;5034651;28;20041;-80
2022/11/21 10:52:22;;;;;;;32.25;17.58;;;;;;;;;;5051503;28;20033;-80
2022/11/21 10:55:04;;;;;;;28.65;15.82;;;;;;;;;;5051872;28;20150;-80
2022/11/21 10:57:46;;;;;;;27.13;14.20;;;;;;;;;;5051856;28;20410;-80
2022/11/21 11:00:12;;;;;;;23.55;12.40;;;;;;;;;;5034852;28;20101;-82
2022/11/21 11:02:39;;;;;;;22.75;11.95;;;;;;;;;;5051821;28;20511;-81
2022/11/21 11:05:19;;;;;;;24.08;13.70;;;;;;;;;;5037140;28;20068;-82
2022/11/21 11:08:03;;;;;;;25.88;13.27;;;;;;;;;;5051666;28;20099;-82
2022/11/21 11:10:30;;;;;;;24.60;13.63;;;;;;;;;;5052072;28;20508;-82
2022/11/21 11:15:52;;;;;;;26.45;14.07;;;;;;;;;;5038714;28;20105;-82
2022/11/21 11:18:20;;;;;;;23.67;13.07;;;;;;;;;;5051424;28;20037;-82
2022/11/21 11:20:46;;;;;;;28.02;13.80;;;;;;;;;;5052472;28;20048;-82
2022/11/21 11:23:17;;;;;;;27.70;14.25;;;;;;;;;;5052586;28;20098;-80
2022/11/21 11:25:47;;;;;;;27.70;14.52;;;;;;;;;;5034381;28;20052;-80
2022/11/21 11:28:13;;;;;;;27.00;14.80;;;;;;;;;;5050865;28;20048;-80
2022/11/21 11:30:39;;;;;;;27.02;14.20;;;;;;;;;;5034534;28;20091;-80
2022/11/21 11:33:24;;;;;;;26.50;14.10;;;;;;;;;;5051446;28;20041;-80
2022/11/21 11:35:50;;;;;;;25.77;13.30;;;;;;;;;;5068027;28;20128;-80
2022/11/21 11:38:17;;;;;;;24.83;13.55;;;;;;;;;;5052293;28;20036;-80
2022/11/21 11:40:44;;;;;;;26.48;13.70;;;;;;;;;;5051160;28;20119;-80
2022/11/21 11:48:49;;;;;;;31.05;14.10;;;;;;;;;;5043404;28;20041;-80
2022/11/21 11:51:21;;;;;;;27.65;15.20;;;;;;;;;;5054417;28;20564;-80
2022/11/21 11:53:53;;;;;;;31.73;15.40;;;;;;;;;;5038299;28;20033;-80
2022/11/21 11:56:21;;;;;;;28.88;15.43;;;;;;;;;;5023842;28;20120;-80
2022/11/21 11:58:51;;;;;;;31.95;15.52;;;;;;;;;;5055051;28;20106;-80
2022/11/21 12:01:35;;;;;;;25.63;13.70;;;;;;;;;;5054352;28;20518;-80
2022/11/21 12:04:10;;;;;;;29.15;15.10;;;;;;;;;;5088209;28;20056;-80
2022/11/21 12:06:52;;;;;;;28.73;14.20;;;;;;;;;;5038127;28;20485;-80
2022/11/21 12:09:30;;;;;;;28.73;14.82;;;;;;;;;;5044388;28;20597;-80
2022/11/21 12:12:07;;;;;;;26.80;14.90;;;;;;;;;;5035748;28;20037;-81
2022/11/21 12:17:21;;;;;;;29.02;14.15;;;;;;;;;;5064678;28;20041;-81
2022/11/21 12:19:50;;;;;;;28.27;14.02;;;;;;;;;;5054369;28;20056;-81
2022/11/21 12:22:16;;;;;;;30.60;15.05;;;;;;;;;;5053663;28;20045;-81
2022/11/21 12:24:42;;;;;;;32.03;14.27;;;;;;;;;;5054274;28;20045;-81
2022/11/21 12:27:20;;;;;;;29.08;14.35;;;;;;;;;;5055523;28;20041;-81
2022/11/21 12:29:49;;;;;;;28.27;13.38;;;;;;;;;;5067179;28;20533;-81
2022/11/21 12:32:34;;;;;;;30.95;14.25;;;;;;;;;;5053966;28;20444;-81
2022/11/21 12:35:16;;;;;;;32.22;16.10;;;;;;;;;;5042093;28;20041;-81
2022/11/21 12:37:54;;;;;;;32.63;14.75;;;;;;;;;;5037341;28;20553;-81
2022/11/21 12:40:26;;;;;;;31.83;15.70;;;;;;;;;;5054391;28;20124;-81
2022/11/21 12:43:07;;;;;;;29.63;14.65;;;;;;;;;;5053601;28;20048;-81
2022/11/21 12:45:35;;;;;;;34.33;15.15;;;;;;;;;;5053797;28;20452;-81
2022/11/21 12:56:38;;;;;;;32.60;13.27;;;;;;;;;;5053223;28;20041;-81
2022/11/21 12:59:05;;;;;;;34.53;16.10;;;;;;;;;;5052381;28;20049;-79
2022/11/21 13:01:37;;;;;;;34.60;15.13;;;;;;;;;;5039453;28;20516;-80
2022/11/21 13:04:05;;;;;;;33.35;14.10;;;;;;;;;;5053740;28;20041;-80
2022/11/21 13:06:33;;;;;;;39.85;16.58;;;;;;;;;;5051610;28;20056;-80
2022/11/21 13:09:01;;;;;;;42.00;17.08;;;;;;;;;;5041318;28;20035;-80
2022/11/21 13:14:21;;;;;;;36.95;14.18;;;;;;;;;;5053499;28;20457;-80
2022/11/21 13:16:57;;;;;;;49.53;16.08;;;;;;;;;;5054511;28;20041;-79
2022/11/21 13:19:26;;;;;;;43.88;16.25;;;;;;;;;;5068397;28;20032;-79
2022/11/21 13:21:53;;;;;;;43.83;17.65;;;;;;;;;;5036855;28;20040;-79
2022/11/21 13:24:38;;;;;;;53.03;18.02;;;;;;;;;;5053837;28;20051;-79
2022/11/21 13:27:07;;;;;;;50.13;17.02;;;;;;;;;;5052878;28;20045;-80
2022/11/21 13:29:33;;;;;;;50.22;18.08;;;;;;;;;;5052407;28;20071;-79
2022/11/21 13:32:19;;;;;;;62.90;19.48;;;;;;;;;;5041645;28;20056;-79
2022/11/21 13:34:46;;;;;;;51.08;20.17;;;;;;;;;;5052681;28;20051;-80
2022/11/21 13:37:32;;;;;;;61.83;19.70;;;;;;;;;;5036454;28;20041;-79
2022/11/21 13:40:18;;;;;;;52.70;17.05;;;;;;;;;;5052787;28;20044;-80
2022/11/21 13:43:08;;;;;;;65.43;19.27;;;;;;;;;;5052424;28;20049;-80
2022/11/21 13:45:42;;;;;;;61.30;17.73;;;;;;;;;;5035823;28;20119;-79
2022/11/21 13:48:26;;;;;;;65.07;18.42;;;;;;;;;;5053436;28;20371;-80
2022/11/21 13:51:09;;;;;;;75.22;19.92;;;;;;;;;;5053488;28;20068;-79
2022/11/21 13:53:35;;;;;;;69.35;18.60;;;;;;;;;;5040687;28;20037;-79
2022/11/21 13:56:20;;;;;;;69.45;20.38;;;;;;;;;;5053764;28;20048;-79
2022/11/21 13:58:58;;;;;;;80.38;21.30;;;;;;;;;;5041548;28;20075;-79
2022/11/21 14:01:24;;;;;;;89.78;19.90;;;;;;;;;;5055152;28;20049;-79
2022/11/21 14:03:59;;;;;;;70.07;15.60;;;;;;;;;;5053959;28;20080;-79
2022/11/21 14:06:42;;;;;;;88.00;18.20;;;;;;;;;;5051986;28;20079;-77
2022/11/21 14:09:22;;;;;;;94.85;21.15;;;;;;;;;;5052381;28;20033;-79
2022/11/21 14:12:00;;;;;;;75.13;17.42;;;;;;;;;;5051612;28;20055;-79
2022/11/21 14:14:30;;;;;;;93.07;19.85;;;;;;;;;;5051892;28;20049;-79
2022/11/21 14:17:19;;;;;;;89.18;19.00;;;;;;;;;;5048686;28;20048;-79
2022/11/21 14:19:46;;;;;;;79.00;19.02;;;;;;;;;;5031481;28;20060;-79
2022/11/21 14:22:35;;;;;;;136.55;23.02;;;;;;;;;;5051949;28;20076;-79
2022/11/21 14:25:05;;;;;;;87.00;18.25;;;;;;;;;;5027480;28;20053;-78
2022/11/21 14:27:33;;;;;;;97.70;20.63;;;;;;;;;;5051486;28;20037;-79
2022/11/21 14:29:59;;;;;;;104.50;19.92;;;;;;;;;;5051725;28;20049;-79
2022/11/21 14:32:26;;;;;;;106.88;21.50;;;;;;;;;;5034793;28;20036;-79
2022/11/21 14:34:52;;;;;;;113.60;23.27;;;;;;;;;;5053114;28;20041;-79
2022/11/21 14:37:18;;;;;;;116.53;20.75;;;;;;;;;;5051823;28;20048;-79
2022/11/21 14:39:46;;;;;;;103.00;20.50;;;;;;;;;;5034614;28;20045;-79
2022/11/21 14:42:14;;;;;;;97.35;19.58;;;;;;;;;;5040906;28;20064;-78
2022/11/21 14:44:40;;;;;;;104.18;20.90;;;;;;;;;;5049154;28;20049;-79
2022/11/21 14:47:21;;;;;;;110.47;23.05;;;;;;;;;;5051707;28;20064;-79
2022/11/21 14:49:51;;;;;;;107.15;21.20;;;;;;;;;;5052334;28;20482;-79
2022/11/21 14:52:29;;;;;;;108.38;22.50;;;;;;;;;;5052416;28;20040;-79
2022/11/21 14:54:56;;;;;;;112.75;22.30;;;;;;;;;;5051590;28;20545;-79
2022/11/21 14:57:27;;;;;;;91.30;20.85;;;;;;;;;;5052042;28;20386;-79
2022/11/21 14:59:54;;;;;;;116.18;22.80;;;;;;;;;;5052692;28;20367;-79
2022/11/21 15:02:28;;;;;;;114.28;26.50;;;;;;;;;;5053173;28;20108;-79
2022/11/21 15:04:55;;;;;;;119.47;23.92;;;;;;;;;;5037661;28;20045;-80